Terminal Aerodrome Forecast
Issued by NWS

Current Version | Previous Version | Text Only | Print | Product List | Glossary On
Versions: 1 2 3 4 5 6 7 8 9 10 11 12
000
FTUS45 KREV 021132
TAFMMH
TAF
KMMH 021132Z 0212/0312 VRB04KT P6SM SKC
     FM021700 11009KT P6SM FEW180
     FM022200 26010G19KT P6SM SCT180
     FM030500 32009KT P6SM SCT180=

USA.gov is the U.S. government's official web portal to all federal, state and local government web resources and services.